Terminal Aerodrome Forecast
Issued by NWS

Home | Current Version | Previous Version | Text Only | Print | Product List | Glossary On
Versions: 1 2 3 4 5 6 7 8 9 10 11 12 13 14 15 16
000
FTUS45 KTFX 231132
TAFGTF
TAF
KGTF 231132Z 2312/2412 23009KT P6SM BKN100
     FM231600 24012KT P6SM SCT130
      TEMPO 2319/2323 23017G28KT
     FM240200 23011KT P6SM SCT120=

USA.gov is the U.S. government's official web portal to all federal, state and local government web resources and services.